sensor_id;sensor_type;location;lat;lon;timestamp;P1;durP1;ratioP1;P2;durP2;ratioP2
66830;SDS011;53739;44.224;22.528;2022-12-18T00:20:41;79.10;;;45.97;;
66830;SDS011;53739;44.224;22.528;2022-12-18T00:23:10;114.68;;;68.68;;
66830;SDS011;53739;44.224;22.528;2022-12-18T00:25:36;75.22;;;41.67;;
66830;SDS011;53739;44.224;22.528;2022-12-18T06:34:12;36.00;;;15.48;;
66830;SDS011;53739;44.224;22.528;2022-12-18T06:43:44;29.45;;;13.98;;
66830;SDS011;53739;44.224;22.528;2022-12-18T06:52:56;33.65;;;17.27;;
66830;SDS011;53739;44.224;22.528;2022-12-18T06:55:22;36.13;;;17.42;;
66830;SDS011;53739;44.224;22.528;2022-12-18T06:57:53;30.70;;;15.00;;
66830;SDS011;53739;44.224;22.528;2022-12-18T07:00:22;34.85;;;16.13;;
66830;SDS011;53739;44.224;22.528;2022-12-18T07:02:48;36.47;;;19.67;;
66830;SDS011;53739;44.224;22.528;2022-12-18T07:05:16;31.98;;;16.67;;
66830;SDS011;53739;44.224;22.528;2022-12-18T07:11:35;48.95;;;22.67;;
66830;SDS011;53739;44.224;22.528;2022-12-18T07:14:01;37.78;;;19.02;;
66830;SDS011;53739;44.224;22.528;2022-12-18T07:16:26;38.17;;;19.70;;
66830;SDS011;53739;44.224;22.528;2022-12-18T07:18:55;42.03;;;21.25;;
66830;SDS011;53739;44.224;22.528;2022-12-18T07:21:36;34.13;;;18.05;;
66830;SDS011;53739;44.224;22.528;2022-12-18T07:30:50;49.40;;;25.13;;
66830;SDS011;53739;44.224;22.528;2022-12-18T07:33:16;47.63;;;23.55;;
66830;SDS011;53739;44.224;22.528;2022-12-18T07:35:42;43.33;;;22.48;;
66830;SDS011;53739;44.224;22.528;2022-12-18T07:38:08;54.60;;;27.77;;
66830;SDS011;53739;44.224;22.528;2022-12-18T07:40:34;46.55;;;23.27;;
66830;SDS011;53739;44.224;22.528;2022-12-18T07:43:00;49.15;;;25.40;;
66830;SDS011;53739;44.224;22.528;2022-12-18T07:45:26;48.65;;;25.75;;
66830;SDS011;53739;44.224;22.528;2022-12-18T07:47:55;43.67;;;20.17;;
66830;SDS011;53739;44.224;22.528;2022-12-18T07:50:20;41.40;;;23.25;;
66830;SDS011;53739;44.224;22.528;2022-12-18T07:52:46;44.13;;;23.73;;
66830;SDS011;53739;44.224;22.528;2022-12-18T07:55:12;44.78;;;23.38;;
66830;SDS011;53739;44.224;22.528;2022-12-18T07:57:41;38.90;;;21.30;;
66830;SDS011;53739;44.224;22.528;2022-12-18T08:00:16;41.00;;;20.02;;
66830;SDS011;53739;44.224;22.528;2022-12-18T08:02:45;39.35;;;20.92;;
66830;SDS011;53739;44.224;22.528;2022-12-18T08:05:11;34.83;;;19.55;;
66830;SDS011;53739;44.224;22.528;2022-12-18T08:07:46;38.38;;;19.65;;
66830;SDS011;53739;44.224;22.528;2022-12-18T08:10:12;41.75;;;20.40;;
66830;SDS011;53739;44.224;22.528;2022-12-18T08:12:38;30.45;;;17.20;;
66830;SDS011;53739;44.224;22.528;2022-12-18T08:15:04;47.90;;;27.02;;
66830;SDS011;53739;44.224;22.528;2022-12-18T08:17:31;43.13;;;21.92;;
66830;SDS011;53739;44.224;22.528;2022-12-18T08:19:57;41.97;;;20.08;;
66830;SDS011;53739;44.224;22.528;2022-12-18T08:22:23;44.42;;;21.38;;
66830;SDS011;53739;44.224;22.528;2022-12-18T08:24:49;41.50;;;22.13;;
66830;SDS011;53739;44.224;22.528;2022-12-18T08:27:14;37.08;;;18.50;;
66830;SDS011;53739;44.224;22.528;2022-12-18T08:29:40;38.40;;;21.27;;
66830;SDS011;53739;44.224;22.528;2022-12-18T08:32:07;37.25;;;18.75;;
66830;SDS011;53739;44.224;22.528;2022-12-18T08:34:33;42.03;;;21.52;;
66830;SDS011;53739;44.224;22.528;2022-12-18T08:36:59;49.67;;;24.73;;
66830;SDS011;53739;44.224;22.528;2022-12-18T08:39:25;39.40;;;21.35;;
66830;SDS011;53739;44.224;22.528;2022-12-18T08:41:50;28.88;;;13.90;;
66830;SDS011;53739;44.224;22.528;2022-12-18T08:44:36;41.30;;;23.00;;
66830;SDS011;53739;44.224;22.528;2022-12-18T08:47:02;35.65;;;20.13;;
66830;SDS011;53739;44.224;22.528;2022-12-18T08:49:29;43.20;;;23.33;;
66830;SDS011;53739;44.224;22.528;2022-12-18T08:51:55;39.72;;;22.88;;
66830;SDS011;53739;44.224;22.528;2022-12-18T08:54:24;40.70;;;23.33;;
66830;SDS011;53739;44.224;22.528;2022-12-18T08:56:51;36.10;;;18.58;;
66830;SDS011;53739;44.224;22.528;2022-12-18T08:59:17;41.78;;;21.85;;
66830;SDS011;53739;44.224;22.528;2022-12-18T09:01:44;54.63;;;29.98;;
66830;SDS011;53739;44.224;22.528;2022-12-18T09:04:11;96.03;;;48.72;;
66830;SDS011;53739;44.224;22.528;2022-12-18T09:06:38;42.70;;;25.45;;
66830;SDS011;53739;44.224;22.528;2022-12-18T09:09:04;47.38;;;26.60;;
66830;SDS011;53739;44.224;22.528;2022-12-18T09:11:31;41.80;;;25.15;;
66830;SDS011;53739;44.224;22.528;2022-12-18T09:13:59;35.30;;;19.77;;
66830;SDS011;53739;44.224;22.528;2022-12-18T09:16:26;35.42;;;21.80;;
66830;SDS011;53739;44.224;22.528;2022-12-18T09:18:54;38.47;;;22.52;;
66830;SDS011;53739;44.224;22.528;2022-12-18T09:21:24;35.20;;;19.73;;
66830;SDS011;53739;44.224;22.528;2022-12-18T09:23:53;55.45;;;29.33;;
66830;SDS011;53739;44.224;22.528;2022-12-18T09:26:20;34.88;;;18.38;;
66830;SDS011;53739;44.224;22.528;2022-12-18T09:28:47;52.28;;;25.90;;
66830;SDS011;53739;44.224;22.528;2022-12-18T09:31:14;40.30;;;19.67;;
66830;SDS011;53739;44.224;22.528;2022-12-18T09:33:41;65.68;;;33.13;;
66830;SDS011;53739;44.224;22.528;2022-12-18T09:36:08;51.55;;;29.42;;
66830;SDS011;53739;44.224;22.528;2022-12-18T09:38:35;43.90;;;27.70;;
66830;SDS011;53739;44.224;22.528;2022-12-18T09:41:27;61.20;;;30.17;;
66830;SDS011;53739;44.224;22.528;2022-12-18T09:47:02;35.17;;;20.25;;
66830;SDS011;53739;44.224;22.528;2022-12-18T09:49:35;46.75;;;27.52;;
66830;SDS011;53739;44.224;22.528;2022-12-18T09:55:22;49.08;;;25.33;;
66830;SDS011;53739;44.224;22.528;2022-12-18T10:01:01;82.95;;;53.97;;
66830;SDS011;53739;44.224;22.528;2022-12-18T10:03:37;57.95;;;36.35;;
66830;SDS011;53739;44.224;22.528;2022-12-18T10:06:15;64.90;;;39.35;;
66830;SDS011;53739;44.224;22.528;2022-12-18T10:14:36;56.13;;;31.77;;
66830;SDS011;53739;44.224;22.528;2022-12-18T10:17:31;36.58;;;21.25;;
66830;SDS011;53739;44.224;22.528;2022-12-18T10:20:13;71.10;;;37.13;;
66830;SDS011;53739;44.224;22.528;2022-12-18T10:25:33;50.00;;;30.38;;
66830;SDS011;53739;44.224;22.528;2022-12-18T10:28:21;61.10;;;33.85;;
66830;SDS011;53739;44.224;22.528;2022-12-18T10:30:48;57.40;;;32.72;;
66830;SDS011;53739;44.224;22.528;2022-12-18T10:33:21;54.58;;;32.33;;
66830;SDS011;53739;44.224;22.528;2022-12-18T10:35:50;41.55;;;23.20;;
66830;SDS011;53739;44.224;22.528;2022-12-18T10:38:23;49.15;;;26.45;;
66830;SDS011;53739;44.224;22.528;2022-12-18T10:40:56;50.47;;;27.33;;
66830;SDS011;53739;44.224;22.528;2022-12-18T10:44:09;38.75;;;22.52;;
66830;SDS011;53739;44.224;22.528;2022-12-18T10:46:44;108.20;;;54.38;;
66830;SDS011;53739;44.224;22.528;2022-12-18T10:49:25;60.83;;;31.25;;
66830;SDS011;53739;44.224;22.528;2022-12-18T10:54:52;37.63;;;21.83;;
66830;SDS011;53739;44.224;22.528;2022-12-18T10:59:52;34.92;;;19.95;;
66830;SDS011;53739;44.224;22.528;2022-12-18T11:02:38;34.08;;;17.15;;
66830;SDS011;53739;44.224;22.528;2022-12-18T11:07:59;34.78;;;17.98;;
66830;SDS011;53739;44.224;22.528;2022-12-18T11:10:36;28.90;;;18.05;;
66830;SDS011;53739;44.224;22.528;2022-12-18T11:13:11;39.95;;;20.48;;
66830;SDS011;53739;44.224;22.528;2022-12-18T11:15:42;46.67;;;26.40;;
66830;SDS011;53739;44.224;22.528;2022-12-18T11:20:56;38.78;;;18.65;;
66830;SDS011;53739;44.224;22.528;2022-12-18T11:23:24;42.78;;;22.30;;
66830;SDS011;53739;44.224;22.528;2022-12-18T11:25:51;33.30;;;18.42;;
66830;SDS011;53739;44.224;22.528;2022-12-18T11:28:26;39.28;;;21.63;;
66830;SDS011;53739;44.224;22.528;2022-12-18T11:36:28;30.98;;;16.88;;
66830;SDS011;53739;44.224;22.528;2022-12-18T11:38:58;36.95;;;17.17;;
66830;SDS011;53739;44.224;22.528;2022-12-18T11:44:42;40.28;;;21.73;;
66830;SDS011;53739;44.224;22.528;2022-12-18T11:49:52;33.03;;;18.20;;
66830;SDS011;53739;44.224;22.528;2022-12-18T11:52:24;36.85;;;17.92;;
66830;SDS011;53739;44.224;22.528;2022-12-18T11:55:11;34.00;;;19.17;;
66830;SDS011;53739;44.224;22.528;2022-12-18T11:57:45;33.25;;;19.45;;
66830;SDS011;53739;44.224;22.528;2022-12-18T12:00:22;36.05;;;18.83;;
66830;SDS011;53739;44.224;22.528;2022-12-18T12:16:26;46.08;;;19.75;;
66830;SDS011;53739;44.224;22.528;2022-12-18T12:30:53;50.05;;;26.60;;
66830;SDS011;53739;44.224;22.528;2022-12-18T12:38:43;40.25;;;23.10;;
66830;SDS011;53739;44.224;22.528;2022-12-18T12:41:16;50.22;;;25.63;;
66830;SDS011;53739;44.224;22.528;2022-12-18T12:44:09;61.25;;;28.92;;
66830;SDS011;53739;44.224;22.528;2022-12-18T12:49:18;45.33;;;20.55;;
66830;SDS011;53739;44.224;22.528;2022-12-18T12:51:47;58.83;;;30.63;;
66830;SDS011;53739;44.224;22.528;2022-12-18T12:54:23;57.67;;;28.70;;
66830;SDS011;53739;44.224;22.528;2022-12-18T12:56:52;76.10;;;33.45;;
66830;SDS011;53739;44.224;22.528;2022-12-18T13:04:56;65.68;;;31.55;;
66830;SDS011;53739;44.224;22.528;2022-12-18T13:12:57;49.85;;;28.45;;
66830;SDS011;53739;44.224;22.528;2022-12-18T13:20:46;68.85;;;33.10;;
66830;SDS011;53739;44.224;22.528;2022-12-18T13:25:50;55.47;;;28.58;;
66830;SDS011;53739;44.224;22.528;2022-12-18T13:31:11;51.30;;;28.95;;
66830;SDS011;53739;44.224;22.528;2022-12-18T13:36:41;57.00;;;30.92;;
66830;SDS011;53739;44.224;22.528;2022-12-18T13:41:39;55.47;;;25.38;;
66830;SDS011;53739;44.224;22.528;2022-12-18T13:47:04;52.17;;;27.83;;
66830;SDS011;53739;44.224;22.528;2022-12-18T13:49:49;56.17;;;29.02;;
66830;SDS011;53739;44.224;22.528;2022-12-18T13:52:17;59.20;;;31.17;;
66830;SDS011;53739;44.224;22.528;2022-12-18T13:54:57;45.72;;;23.00;;
66830;SDS011;53739;44.224;22.528;2022-12-18T13:59:53;50.60;;;27.55;;
66830;SDS011;53739;44.224;22.528;2022-12-18T14:02:24;72.40;;;37.45;;
66830;SDS011;53739;44.224;22.528;2022-12-18T14:04:52;58.83;;;34.45;;
66830;SDS011;53739;44.224;22.528;2022-12-18T14:07:20;53.92;;;25.23;;
66830;SDS011;53739;44.224;22.528;2022-12-18T14:09:54;90.68;;;51.45;;
66830;SDS011;53739;44.224;22.528;2022-12-18T14:12:24;90.35;;;50.78;;
66830;SDS011;53739;44.224;22.528;2022-12-18T14:15:20;70.50;;;35.85;;
66830;SDS011;53739;44.224;22.528;2022-12-18T14:20:41;102.60;;;57.63;;
66830;SDS011;53739;44.224;22.528;2022-12-18T14:25:56;130.75;;;69.68;;
66830;SDS011;53739;44.224;22.528;2022-12-18T14:28:22;86.22;;;50.42;;
66830;SDS011;53739;44.224;22.528;2022-12-18T14:30:48;88.75;;;50.10;;
66830;SDS011;53739;44.224;22.528;2022-12-18T14:33:16;71.53;;;40.58;;
66830;SDS011;53739;44.224;22.528;2022-12-18T14:35:53;63.58;;;34.58;;
66830;SDS011;53739;44.224;22.528;2022-12-18T14:38:31;102.60;;;48.47;;
66830;SDS011;53739;44.224;22.528;2022-12-18T14:41:00;87.80;;;47.47;;
66830;SDS011;53739;44.224;22.528;2022-12-18T14:43:36;81.63;;;43.20;;
66830;SDS011;53739;44.224;22.528;2022-12-18T14:46:03;113.25;;;57.92;;
66830;SDS011;53739;44.224;22.528;2022-12-18T14:48:50;113.53;;;57.10;;
66830;SDS011;53739;44.224;22.528;2022-12-18T14:51:17;74.43;;;38.05;;
66830;SDS011;53739;44.224;22.528;2022-12-18T14:53:55;76.93;;;38.38;;
66830;SDS011;53739;44.224;22.528;2022-12-18T14:56:23;71.82;;;39.08;;
66830;SDS011;53739;44.224;22.528;2022-12-18T14:58:58;120.10;;;62.60;;
66830;SDS011;53739;44.224;22.528;2022-12-18T15:01:37;91.60;;;50.58;;
66830;SDS011;53739;44.224;22.528;2022-12-18T15:04:24;55.30;;;31.27;;
66830;SDS011;53739;44.224;22.528;2022-12-18T15:12:44;56.78;;;30.02;;
66830;SDS011;53739;44.224;22.528;2022-12-18T15:17:59;65.55;;;33.97;;
66830;SDS011;53739;44.224;22.528;2022-12-18T15:20:25;62.33;;;31.55;;
66830;SDS011;53739;44.224;22.528;2022-12-18T15:22:52;57.92;;;30.48;;
66830;SDS011;53739;44.224;22.528;2022-12-18T15:25:27;54.03;;;27.90;;
66830;SDS011;53739;44.224;22.528;2022-12-18T15:28:00;53.22;;;26.38;;
66830;SDS011;53739;44.224;22.528;2022-12-18T15:30:26;59.00;;;27.88;;
66830;SDS011;53739;44.224;22.528;2022-12-18T15:32:52;53.47;;;28.75;;
66830;SDS011;53739;44.224;22.528;2022-12-18T15:35:42;42.67;;;19.70;;
66830;SDS011;53739;44.224;22.528;2022-12-18T15:38:08;59.92;;;29.98;;
66830;SDS011;53739;44.224;22.528;2022-12-18T15:40:33;46.88;;;23.15;;
66830;SDS011;53739;44.224;22.528;2022-12-18T15:42:59;54.83;;;26.83;;
66830;SDS011;53739;44.224;22.528;2022-12-18T15:45:43;52.10;;;28.38;;
66830;SDS011;53739;44.224;22.528;2022-12-18T15:48:15;58.90;;;26.95;;
66830;SDS011;53739;44.224;22.528;2022-12-18T15:50:46;53.28;;;26.25;;
66830;SDS011;53739;44.224;22.528;2022-12-18T15:53:16;62.25;;;28.65;;
66830;SDS011;53739;44.224;22.528;2022-12-18T15:55:46;44.20;;;21.73;;
66830;SDS011;53739;44.224;22.528;2022-12-18T15:58:30;63.35;;;31.48;;
66830;SDS011;53739;44.224;22.528;2022-12-18T16:00:58;49.90;;;22.05;;
66830;SDS011;53739;44.224;22.528;2022-12-18T16:03:27;56.95;;;28.52;;
66830;SDS011;53739;44.224;22.528;2022-12-18T16:05:53;52.08;;;25.00;;
66830;SDS011;53739;44.224;22.528;2022-12-18T16:08:19;49.30;;;24.35;;
66830;SDS011;53739;44.224;22.528;2022-12-18T16:10:45;57.75;;;28.25;;
66830;SDS011;53739;44.224;22.528;2022-12-18T16:13:11;50.25;;;25.05;;
66830;SDS011;53739;44.224;22.528;2022-12-18T16:15:41;56.70;;;26.10;;
66830;SDS011;53739;44.224;22.528;2022-12-18T16:18:07;55.85;;;28.60;;
66830;SDS011;53739;44.224;22.528;2022-12-18T16:20:32;57.05;;;27.45;;
66830;SDS011;53739;44.224;22.528;2022-12-18T16:22:58;48.17;;;24.77;;
66830;SDS011;53739;44.224;22.528;2022-12-18T16:25:27;56.47;;;28.77;;
66830;SDS011;53739;44.224;22.528;2022-12-18T16:27:54;58.78;;;29.27;;
66830;SDS011;53739;44.224;22.528;2022-12-18T16:30:21;56.65;;;28.23;;
66830;SDS011;53739;44.224;22.528;2022-12-18T16:32:50;52.35;;;28.88;;
66830;SDS011;53739;44.224;22.528;2022-12-18T16:35:16;53.20;;;28.30;;
66830;SDS011;53739;44.224;22.528;2022-12-18T16:37:42;52.85;;;24.58;;
66830;SDS011;53739;44.224;22.528;2022-12-18T16:40:09;53.58;;;29.65;;
66830;SDS011;53739;44.224;22.528;2022-12-18T16:42:38;43.08;;;24.83;;
66830;SDS011;53739;44.224;22.528;2022-12-18T16:45:05;92.28;;;49.25;;
66830;SDS011;53739;44.224;22.528;2022-12-18T16:47:33;55.40;;;29.58;;
66830;SDS011;53739;44.224;22.528;2022-12-18T16:49:59;56.85;;;30.35;;
66830;SDS011;53739;44.224;22.528;2022-12-18T16:52:25;54.85;;;29.05;;
66830;SDS011;53739;44.224;22.528;2022-12-18T16:54:54;50.08;;;25.45;;
66830;SDS011;53739;44.224;22.528;2022-12-18T16:57:20;72.90;;;35.67;;
66830;SDS011;53739;44.224;22.528;2022-12-18T16:59:47;53.65;;;30.02;;
66830;SDS011;53739;44.224;22.528;2022-12-18T17:02:14;57.58;;;30.50;;
66830;SDS011;53739;44.224;22.528;2022-12-18T17:04:44;93.30;;;48.83;;
66830;SDS011;53739;44.224;22.528;2022-12-18T17:07:11;86.15;;;50.05;;
66830;SDS011;53739;44.224;22.528;2022-12-18T17:09:37;62.28;;;32.78;;
66830;SDS011;53739;44.224;22.528;2022-12-18T17:12:03;72.25;;;38.03;;
66830;SDS011;53739;44.224;22.528;2022-12-18T17:14:30;64.95;;;31.63;;
66830;SDS011;53739;44.224;22.528;2022-12-18T17:16:57;69.18;;;35.95;;
66830;SDS011;53739;44.224;22.528;2022-12-18T17:19:24;54.70;;;28.25;;
66830;SDS011;53739;44.224;22.528;2022-12-18T17:21:50;47.83;;;28.25;;
66830;SDS011;53739;44.224;22.528;2022-12-18T17:24:17;53.25;;;30.95;;
66830;SDS011;53739;44.224;22.528;2022-12-18T17:26:43;61.25;;;29.98;;
66830;SDS011;53739;44.224;22.528;2022-12-18T17:29:13;65.43;;;36.88;;
66830;SDS011;53739;44.224;22.528;2022-12-18T17:31:41;65.05;;;35.30;;
66830;SDS011;53739;44.224;22.528;2022-12-18T17:34:07;49.38;;;23.77;;
66830;SDS011;53739;44.224;22.528;2022-12-18T17:36:35;49.03;;;25.38;;
66830;SDS011;53739;44.224;22.528;2022-12-18T17:39:02;54.60;;;27.65;;
66830;SDS011;53739;44.224;22.528;2022-12-18T17:41:29;60.67;;;31.67;;
66830;SDS011;53739;44.224;22.528;2022-12-18T17:43:56;37.70;;;18.92;;
66830;SDS011;53739;44.224;22.528;2022-12-18T17:46:28;39.13;;;19.88;;
66830;SDS011;53739;44.224;22.528;2022-12-18T17:48:55;52.17;;;27.23;;
66830;SDS011;53739;44.224;22.528;2022-12-18T17:51:24;57.95;;;32.80;;
66830;SDS011;53739;44.224;22.528;2022-12-18T17:53:51;69.90;;;32.75;;
66830;SDS011;53739;44.224;22.528;2022-12-18T17:56:17;53.75;;;26.42;;
66830;SDS011;53739;44.224;22.528;2022-12-18T17:58:44;50.50;;;24.63;;
66830;SDS011;53739;44.224;22.528;2022-12-18T18:01:12;56.53;;;27.45;;
66830;SDS011;53739;44.224;22.528;2022-12-18T18:03:40;51.42;;;26.85;;
66830;SDS011;53739;44.224;22.528;2022-12-18T18:06:06;53.53;;;27.52;;
66830;SDS011;53739;44.224;22.528;2022-12-18T18:08:33;55.67;;;27.48;;
66830;SDS011;53739;44.224;22.528;2022-12-18T18:11:04;79.38;;;41.83;;
66830;SDS011;53739;44.224;22.528;2022-12-18T18:13:49;85.75;;;38.42;;
66830;SDS011;53739;44.224;22.528;2022-12-18T18:16:36;137.00;;;58.25;;
66830;SDS011;53739;44.224;22.528;2022-12-18T18:19:05;103.13;;;43.42;;
66830;SDS011;53739;44.224;22.528;2022-12-18T18:21:33;90.32;;;37.90;;
66830;SDS011;53739;44.224;22.528;2022-12-18T18:24:02;57.13;;;27.77;;
66830;SDS011;53739;44.224;22.528;2022-12-18T18:26:32;95.55;;;44.10;;
66830;SDS011;53739;44.224;22.528;2022-12-18T18:28:59;56.75;;;26.65;;
66830;SDS011;53739;44.224;22.528;2022-12-18T18:31:27;46.22;;;23.08;;
66830;SDS011;53739;44.224;22.528;2022-12-18T18:33:54;111.55;;;49.03;;
66830;SDS011;53739;44.224;22.528;2022-12-18T18:36:21;57.33;;;30.55;;
66830;SDS011;53739;44.224;22.528;2022-12-18T18:38:48;86.45;;;39.35;;
66830;SDS011;53739;44.224;22.528;2022-12-18T18:41:14;77.35;;;43.33;;
66830;SDS011;53739;44.224;22.528;2022-12-18T18:43:40;82.47;;;38.92;;
66830;SDS011;53739;44.224;22.528;2022-12-18T18:46:06;103.45;;;47.72;;
66830;SDS011;53739;44.224;22.528;2022-12-18T18:48:35;120.78;;;50.75;;
66830;SDS011;53739;44.224;22.528;2022-12-18T18:51:05;102.22;;;47.45;;
66830;SDS011;53739;44.224;22.528;2022-12-18T18:53:35;78.05;;;33.03;;
66830;SDS011;53739;44.224;22.528;2022-12-18T18:56:06;105.60;;;49.78;;
66830;SDS011;53739;44.224;22.528;2022-12-18T18:58:33;50.67;;;26.77;;
66830;SDS011;53739;44.224;22.528;2022-12-18T19:01:00;47.42;;;24.55;;
66830;SDS011;53739;44.224;22.528;2022-12-18T19:03:30;65.13;;;34.17;;
66830;SDS011;53739;44.224;22.528;2022-12-18T19:05:56;86.50;;;44.10;;
66830;SDS011;53739;44.224;22.528;2022-12-18T19:08:25;101.57;;;46.90;;
66830;SDS011;53739;44.224;22.528;2022-12-18T19:10:54;72.07;;;36.13;;
66830;SDS011;53739;44.224;22.528;2022-12-18T19:13:22;87.60;;;43.63;;
66830;SDS011;53739;44.224;22.528;2022-12-18T19:15:51;53.20;;;25.50;;
66830;SDS011;53739;44.224;22.528;2022-12-18T19:18:26;75.22;;;35.17;;
66830;SDS011;53739;44.224;22.528;2022-12-18T19:20:56;56.35;;;27.35;;
66830;SDS011;53739;44.224;22.528;2022-12-18T19:23:23;61.40;;;31.58;;
66830;SDS011;53739;44.224;22.528;2022-12-18T19:25:49;82.00;;;42.80;;
66830;SDS011;53739;44.224;22.528;2022-12-18T19:28:15;51.83;;;25.67;;
66830;SDS011;53739;44.224;22.528;2022-12-18T19:30:41;50.85;;;26.83;;
66830;SDS011;53739;44.224;22.528;2022-12-18T19:33:07;72.78;;;39.95;;
66830;SDS011;53739;44.224;22.528;2022-12-18T19:35:33;53.75;;;27.35;;
66830;SDS011;53739;44.224;22.528;2022-12-18T19:37:59;48.60;;;20.35;;
66830;SDS011;53739;44.224;22.528;2022-12-18T19:40:25;53.95;;;29.75;;
66830;SDS011;53739;44.224;22.528;2022-12-18T19:42:51;53.97;;;24.00;;
66830;SDS011;53739;44.224;22.528;2022-12-18T19:45:17;73.85;;;37.53;;
66830;SDS011;53739;44.224;22.528;2022-12-18T19:47:43;62.03;;;33.00;;
66830;SDS011;53739;44.224;22.528;2022-12-18T19:50:08;67.15;;;36.60;;
66830;SDS011;53739;44.224;22.528;2022-12-18T19:52:34;54.05;;;23.85;;
66830;SDS011;53739;44.224;22.528;2022-12-18T19:55:01;75.50;;;38.72;;
66830;SDS011;53739;44.224;22.528;2022-12-18T19:57:27;87.78;;;42.40;;
66830;SDS011;53739;44.224;22.528;2022-12-18T19:59:52;67.50;;;33.65;;
66830;SDS011;53739;44.224;22.528;2022-12-18T20:02:18;69.15;;;33.08;;
66830;SDS011;53739;44.224;22.528;2022-12-18T20:04:45;72.32;;;38.78;;
66830;SDS011;53739;44.224;22.528;2022-12-18T20:07:11;57.85;;;27.25;;
66830;SDS011;53739;44.224;22.528;2022-12-18T20:09:37;68.95;;;35.35;;
66830;SDS011;53739;44.224;22.528;2022-12-18T20:12:03;83.93;;;40.90;;
66830;SDS011;53739;44.224;22.528;2022-12-18T20:14:29;100.15;;;51.70;;
66830;SDS011;53739;44.224;22.528;2022-12-18T20:16:55;103.03;;;50.40;;
66830;SDS011;53739;44.224;22.528;2022-12-18T20:19:21;77.95;;;41.30;;
66830;SDS011;53739;44.224;22.528;2022-12-18T20:21:47;108.80;;;52.30;;
66830;SDS011;53739;44.224;22.528;2022-12-18T20:24:13;86.00;;;45.35;;
66830;SDS011;53739;44.224;22.528;2022-12-18T20:26:39;93.05;;;45.55;;
66830;SDS011;53739;44.224;22.528;2022-12-18T20:29:05;91.22;;;47.33;;
66830;SDS011;53739;44.224;22.528;2022-12-18T20:31:31;65.38;;;35.75;;
66830;SDS011;53739;44.224;22.528;2022-12-18T20:33:57;73.03;;;39.28;;
66830;SDS011;53739;44.224;22.528;2022-12-18T20:36:23;82.28;;;45.42;;
66830;SDS011;53739;44.224;22.528;2022-12-18T20:38:50;83.18;;;45.33;;
66830;SDS011;53739;44.224;22.528;2022-12-18T20:41:19;58.65;;;33.33;;
66830;SDS011;53739;44.224;22.528;2022-12-18T20:43:46;61.90;;;36.42;;
66830;SDS011;53739;44.224;22.528;2022-12-18T20:46:13;63.03;;;33.70;;
66830;SDS011;53739;44.224;22.528;2022-12-18T20:48:42;57.95;;;33.17;;
66830;SDS011;53739;44.224;22.528;2022-12-18T20:51:10;74.22;;;42.35;;
66830;SDS011;53739;44.224;22.528;2022-12-18T20:53:37;66.68;;;36.78;;
66830;SDS011;53739;44.224;22.528;2022-12-18T20:56:07;84.70;;;46.30;;
66830;SDS011;53739;44.224;22.528;2022-12-18T20:58:39;78.93;;;44.75;;
66830;SDS011;53739;44.224;22.528;2022-12-18T21:01:09;104.55;;;56.83;;
66830;SDS011;53739;44.224;22.528;2022-12-18T21:03:40;112.88;;;61.80;;
66830;SDS011;53739;44.224;22.528;2022-12-18T21:06:10;134.48;;;76.35;;
66830;SDS011;53739;44.224;22.528;2022-12-18T21:08:37;151.75;;;75.18;;
66830;SDS011;53739;44.224;22.528;2022-12-18T21:11:22;126.55;;;65.38;;
66830;SDS011;53739;44.224;22.528;2022-12-18T21:16:41;87.72;;;47.70;;
66830;SDS011;53739;44.224;22.528;2022-12-18T21:19:08;97.80;;;54.67;;
66830;SDS011;53739;44.224;22.528;2022-12-18T21:21:35;68.68;;;36.78;;
66830;SDS011;53739;44.224;22.528;2022-12-18T21:24:01;75.47;;;40.92;;
66830;SDS011;53739;44.224;22.528;2022-12-18T21:26:27;61.28;;;29.92;;
66830;SDS011;53739;44.224;22.528;2022-12-18T21:28:53;82.30;;;47.58;;
66830;SDS011;53739;44.224;22.528;2022-12-18T21:31:20;92.68;;;48.67;;
66830;SDS011;53739;44.224;22.528;2022-12-18T21:33:48;106.20;;;53.58;;
66830;SDS011;53739;44.224;22.528;2022-12-18T21:36:14;96.82;;;48.97;;
66830;SDS011;53739;44.224;22.528;2022-12-18T21:38:40;82.60;;;45.92;;
66830;SDS011;53739;44.224;22.528;2022-12-18T21:41:06;119.53;;;60.65;;
66830;SDS011;53739;44.224;22.528;2022-12-18T21:43:37;87.97;;;46.15;;
66830;SDS011;53739;44.224;22.528;2022-12-18T21:46:21;69.53;;;36.38;;
66830;SDS011;53739;44.224;22.528;2022-12-18T21:48:46;96.13;;;50.47;;
66830;SDS011;53739;44.224;22.528;2022-12-18T21:51:12;47.05;;;26.52;;
66830;SDS011;53739;44.224;22.528;2022-12-18T21:53:38;99.70;;;54.90;;
66830;SDS011;53739;44.224;22.528;2022-12-18T21:56:04;105.38;;;54.00;;
66830;SDS011;53739;44.224;22.528;2022-12-18T21:58:30;95.97;;;53.05;;
66830;SDS011;53739;44.224;22.528;2022-12-18T22:00:56;93.25;;;51.00;;
66830;SDS011;53739;44.224;22.528;2022-12-18T22:03:21;84.47;;;43.78;;
66830;SDS011;53739;44.224;22.528;2022-12-18T22:05:47;290.10;;;127.35;;
66830;SDS011;53739;44.224;22.528;2022-12-18T22:08:13;228.27;;;114.65;;
66830;SDS011;53739;44.224;22.528;2022-12-18T22:10:39;223.40;;;116.32;;
66830;SDS011;53739;44.224;22.528;2022-12-18T22:13:05;258.38;;;127.80;;
66830;SDS011;53739;44.224;22.528;2022-12-18T22:15:32;211.05;;;105.22;;
66830;SDS011;53739;44.224;22.528;2022-12-18T22:17:57;207.13;;;105.32;;
66830;SDS011;53739;44.224;22.528;2022-12-18T22:20:23;196.80;;;101.20;;
66830;SDS011;53739;44.224;22.528;2022-12-18T22:22:49;264.73;;;135.00;;
66830;SDS011;53739;44.224;22.528;2022-12-18T22:25:16;223.30;;;118.18;;
66830;SDS011;53739;44.224;22.528;2022-12-18T22:27:43;195.40;;;100.85;;
66830;SDS011;53739;44.224;22.528;2022-12-18T22:30:29;172.02;;;92.72;;
66830;SDS011;53739;44.224;22.528;2022-12-18T22:32:54;166.10;;;91.57;;
66830;SDS011;53739;44.224;22.528;2022-12-18T22:35:20;92.68;;;48.15;;
66830;SDS011;53739;44.224;22.528;2022-12-18T22:37:46;90.90;;;47.63;;
66830;SDS011;53739;44.224;22.528;2022-12-18T22:40:16;77.28;;;41.22;;
66830;SDS011;53739;44.224;22.528;2022-12-18T22:42:43;72.10;;;38.50;;
66830;SDS011;53739;44.224;22.528;2022-12-18T22:45:09;72.53;;;39.72;;
66830;SDS011;53739;44.224;22.528;2022-12-18T22:47:35;62.15;;;31.80;;
66830;SDS011;53739;44.224;22.528;2022-12-18T22:50:01;66.53;;;34.75;;
66830;SDS011;53739;44.224;22.528;2022-12-18T22:52:27;57.10;;;31.38;;
66830;SDS011;53739;44.224;22.528;2022-12-18T22:54:53;64.25;;;36.35;;
66830;SDS011;53739;44.224;22.528;2022-12-18T22:57:18;63.92;;;35.22;;
66830;SDS011;53739;44.224;22.528;2022-12-18T22:59:45;484.77;;;255.23;;
66830;SDS011;53739;44.224;22.528;2022-12-18T23:02:11;143.40;;;68.82;;
66830;SDS011;53739;44.224;22.528;2022-12-18T23:04:37;75.10;;;36.38;;
66830;SDS011;53739;44.224;22.528;2022-12-18T23:07:03;187.30;;;82.22;;
66830;SDS011;53739;44.224;22.528;2022-12-18T23:09:29;92.15;;;43.85;;
66830;SDS011;53739;44.224;22.528;2022-12-18T23:11:55;111.97;;;52.00;;